Time;durP1;ratioP1;P1;durP2;ratioP2;P2;SDS_P1;SDS_P2;PMS_P1;PMS_P2;Temp;Humidity;BMP_temperature;BMP_pressure;BME280_temperature;BME280_humidity;BME280_pressure;Samples;Min_cycle;Max_cycle;Signal;HPM_P1;HPM_P2
2021/10/01 00:00:18;;;;;;;;;;;;;;;;;;2115089;28;20292;-60
2021/10/01 00:01:19;;;;;;;;;;;;;;;;;;2114689;28;20025;-60
2021/10/01 00:02:19;;;;;;;;;;;;;;;;;;2121545;27;19943;-59
2021/10/01 00:03:20;;;;;;;;;;;;;;;;;;2123597;27;19923;-60
2021/10/01 00:04:21;;;;;;;;;;;;;;;;;;2123132;27;20391;-60
2021/10/01 00:05:22;;;;;;;;;;;;;;;;;;2122528;27;19923;-60
2021/10/01 00:06:23;;;;;;;;;;;;;;;;;;2123723;27;19972;-60
2021/10/01 00:07:24;;;;;;;;;;;;;;;;;;2121522;27;20330;-60
2021/10/01 00:08:25;;;;;;;;;;;;;;;;;;2122365;27;20300;-60
2021/10/01 00:09:25;;;;;;;;;;;;;;;;;;2115129;28;20360;-60
2021/10/01 00:10:26;;;;;;;;;;;;;;;;;;2115089;28;19945;-60
2021/10/01 00:11:27;;;;;;;;;;;;;;;;;;2122574;27;20329;-60
2021/10/01 00:12:28;;;;;;;;;;;;;;;;;;2123665;27;19927;-60
2021/10/01 00:13:29;;;;;;;;;;;;;;;;;;2121410;27;20500;-60
2021/10/01 00:14:30;;;;;;;;;;;;;;;;;;2120025;27;20291;-60
2021/10/01 00:15:31;;;;;;;;;;;;;;;;;;2115095;28;20326;-60
2021/10/01 00:16:35;;;;;;;;;;;;;;;;;;2117994;27;19962;-60
2021/10/01 00:17:36;;;;;;;;;;;;;;;;;;2122334;28;20383;-60
2021/10/01 00:18:37;;;;;;;;;;;;;;;;;;2123463;27;19963;-60
2021/10/01 00:19:38;;;;;;;;;;;;;;;;;;2123643;27;19923;-60
2021/10/01 00:20:39;;;;;;;;;;;;;;;;;;2117954;27;19924;-60
2021/10/01 00:21:40;;;;;;;;;;;;;;;;;;2114837;28;19972;-59
2021/10/01 00:22:41;;;;;;;;;;;;;;;;;;2118846;27;19924;-60
2021/10/01 00:23:41;;;;;;;;;;;;;;;;;;2122711;28;20340;-59
2021/10/01 00:24:43;;;;;;;;;;;;;;;;;;2123597;27;20401;-59
2021/10/01 00:25:44;;;;;;;;;;;;;;;;;;2124260;27;20001;-59
2021/10/01 00:26:45;;;;;;;;;;;;;;;;;;2115660;28;20376;-60
2021/10/01 00:27:46;;;;;;;;;;;;;;;;;;2114877;28;19931;-60
2021/10/01 00:28:47;;;;;;;;;;;;;;;;;;2118346;28;19924;-60
2021/10/01 00:29:48;;;;;;;;;;;;;;;;;;2123246;27;19929;-59
2021/10/01 00:30:49;;;;;;;;;;;;;;;;;;2123502;27;19973;-59
2021/10/01 00:31:50;;;;;;;;;;;;;;;;;;2121038;27;19934;-59
2021/10/01 00:32:52;;;;;;;;;;;;;;;;;;2123388;27;20395;-59
2021/10/01 00:33:53;;;;;;;;;;;;;;;;;;2123343;27;19972;-59
2021/10/01 00:34:54;;;;;;;;;;;;;;;;;;2121012;27;20377;-59
2021/10/01 00:35:54;;;;;;;;;;;;;;;;;;2123501;27;19924;-59
2021/10/01 00:36:55;;;;;;;;;;;;;;;;;;2122921;27;20367;-59
2021/10/01 00:37:57;;;;;;;;;;;;;;;;;;2121346;27;19931;-59
2021/10/01 00:38:58;;;;;;;;;;;;;;;;;;2123363;27;19959;-59
2021/10/01 00:39:59;;;;;;;;;;;;;;;;;;2122964;27;20425;-60
2021/10/01 00:41:00;;;;;;;;;;;;;;;;;;2121249;27;19927;-58
2021/10/01 00:42:01;;;;;;;;;;;;;;;;;;2123438;27;19927;-59
2021/10/01 00:43:02;;;;;;;;;;;;;;;;;;2122411;27;19923;-59
2021/10/01 00:44:02;;;;;;;;;;;;;;;;;;2122081;27;19934;-59
2021/10/01 00:45:03;;;;;;;;;;;;;;;;;;2123462;27;19992;-59
2021/10/01 00:46:04;;;;;;;;;;;;;;;;;;2121680;27;19933;-58
2021/10/01 00:47:05;;;;;;;;;;;;;;;;;;2122583;27;19934;-59
2021/10/01 00:48:06;;;;;;;;;;;;;;;;;;2123283;28;19923;-59
2021/10/01 00:49:06;;;;;;;;;;;;;;;;;;2121579;28;19923;-59
2021/10/01 00:50:07;;;;;;;;;;;;;;;;;;2121688;28;20360;-59
2021/10/01 00:51:08;;;;;;;;;;;;;;;;;;2115323;27;19923;-59
2021/10/01 00:52:09;;;;;;;;;;;;;;;;;;2117566;27;19988;-59
2021/10/01 00:53:10;;;;;;;;;;;;;;;;;;2127606;27;19930;-59
2021/10/01 00:54:10;;;;;;;;;;;;;;;;;;2131799;27;20424;-59
2021/10/01 00:55:11;;;;;;;;;;;;;;;;;;2126681;27;19932;-59
2021/10/01 00:56:12;;;;;;;;;;;;;;;;;;2121813;28;19946;-59
2021/10/01 00:57:13;;;;;;;;;;;;;;;;;;2123226;27;20049;-59
2021/10/01 00:58:14;;;;;;;;;;;;;;;;;;2121163;27;19923;-59
2021/10/01 00:59:14;;;;;;;;;;;;;;;;;;2116593;27;20392;-59
2021/10/01 01:00:26;;;;;;;;;;;;;;;;;;2114720;28;19931;-59
2021/10/01 01:01:27;;;;;;;;;;;;;;;;;;2122907;27;20014;-59
2021/10/01 01:02:28;;;;;;;;;;;;;;;;;;2114799;28;20023;-59
2021/10/01 01:03:29;;;;;;;;;;;;;;;;;;2114768;28;19946;-59
2021/10/01 01:04:29;;;;;;;;;;;;;;;;;;2119381;28;20345;-59
2021/10/01 01:05:30;;;;;;;;;;;;;;;;;;2114742;28;20339;-59
2021/10/01 01:06:31;;;;;;;;;;;;;;;;;;2114674;28;19931;-59
2021/10/01 01:07:32;;;;;;;;;;;;;;;;;;2120686;27;19944;-59
2021/10/01 01:08:33;;;;;;;;;;;;;;;;;;2123154;27;20022;-59
2021/10/01 01:09:34;;;;;;;;;;;;;;;;;;2122720;27;20345;-59
2021/10/01 01:10:35;;;;;;;;;;;;;;;;;;2122446;27;19923;-59
2021/10/01 01:11:36;;;;;;;;;;;;;;;;;;2114788;28;19924;-59
2021/10/01 01:12:37;;;;;;;;;;;;;;;;;;2115350;28;19924;-59
2021/10/01 01:13:37;;;;;;;;;;;;;;;;;;2122057;27;20348;-59
2021/10/01 01:14:39;;;;;;;;;;;;;;;;;;2114578;28;19923;-60
2021/10/01 01:15:39;;;;;;;;;;;;;;;;;;2115429;28;19928;-59
2021/10/01 01:16:40;;;;;;;;;;;;;;;;;;2121906;27;19923;-59
2021/10/01 01:17:41;;;;;;;;;;;;;;;;;;2114575;28;19923;-59
2021/10/01 01:18:42;;;;;;;;;;;;;;;;;;2115620;28;19924;-59
2021/10/01 01:19:42;;;;;;;;;;;;;;;;;;2122380;27;20292;-59
2021/10/01 01:20:43;;;;;;;;;;;;;;;;;;2123241;27;20367;-58
2021/10/01 01:21:44;;;;;;;;;;;;;;;;;;2122009;27;19955;-59
2021/10/01 01:22:45;;;;;;;;;;;;;;;;;;2123671;27;19923;-59
2021/10/01 01:23:46;;;;;;;;;;;;;;;;;;2124594;27;19923;-59
2021/10/01 01:24:47;;;;;;;;;;;;;;;;;;2122728;27;19924;-59
2021/10/01 01:25:47;;;;;;;;;;;;;;;;;;2129410;27;20293;-59
2021/10/01 01:26:48;;;;;;;;;;;;;;;;;;2133247;27;19923;-59
2021/10/01 01:27:49;;;;;;;;;;;;;;;;;;2128510;27;19930;-59
2021/10/01 01:28:50;;;;;;;;;;;;;;;;;;2120028;27;19927;-58
2021/10/01 01:29:50;;;;;;;;;;;;;;;;;;2116147;28;20399;-59
2021/10/01 01:30:51;;;;;;;;;;;;;;;;;;2120875;27;20269;-59
2021/10/01 01:31:52;;;;;;;;;;;;;;;;;;2118986;27;19923;-59
2021/10/01 01:32:53;;;;;;;;;;;;;;;;;;2116176;28;19924;-59
2021/10/01 01:33:54;;;;;;;;;;;;;;;;;;2122319;27;19983;-59
2021/10/01 01:34:55;;;;;;;;;;;;;;;;;;2117718;27;19930;-59
2021/10/01 01:35:55;;;;;;;;;;;;;;;;;;2116072;28;19930;-58
2021/10/01 01:36:56;;;;;;;;;;;;;;;;;;2119903;27;20386;-59
2021/10/01 01:37:57;;;;;;;;;;;;;;;;;;2116139;28;19928;-59
2021/10/01 01:38:58;;;;;;;;;;;;;;;;;;2115979;28;20001;-59
2021/10/01 01:39:58;;;;;;;;;;;;;;;;;;2123936;27;19923;-59
2021/10/01 01:40:59;;;;;;;;;;;;;;;;;;2116018;28;19923;-58
2021/10/01 01:42:00;;;;;;;;;;;;;;;;;;2116603;28;20356;-59
2021/10/01 01:43:01;;;;;;;;;;;;;;;;;;2122427;27;19969;-59
2021/10/01 01:44:02;;;;;;;;;;;;;;;;;;2124443;27;20376;-59
2021/10/01 01:45:03;;;;;;;;;;;;;;;;;;2123691;27;19927;-59
2021/10/01 01:46:03;;;;;;;;;;;;;;;;;;2123059;27;20443;-59
2021/10/01 01:47:04;;;;;;;;;;;;;;;;;;2115971;28;19957;-59
2021/10/01 01:48:05;;;;;;;;;;;;;;;;;;2116816;28;19924;-57
2021/10/01 01:49:06;;;;;;;;;;;;;;;;;;2122979;27;19970;-59
2021/10/01 01:50:07;;;;;;;;;;;;;;;;;;2124493;27;19930;-59
2021/10/01 01:51:08;;;;;;;;;;;;;;;;;;2117777;27;19939;-58
2021/10/01 01:52:09;;;;;;;;;;;;;;;;;;2118275;27;20189;-58
2021/10/01 01:53:09;;;;;;;;;;;;;;;;;;2115836;28;19985;-59
2021/10/01 01:54:11;;;;;;;;;;;;;;;;;;2119658;27;19924;-58
2021/10/01 01:55:12;;;;;;;;;;;;;;;;;;2123346;28;20002;-59
2021/10/01 01:56:12;;;;;;;;;;;;;;;;;;2124517;27;19930;-58
2021/10/01 01:57:13;;;;;;;;;;;;;;;;;;2125382;27;19931;-58
2021/10/01 01:58:14;;;;;;;;;;;;;;;;;;2116361;28;19923;-59
2021/10/01 01:59:15;;;;;;;;;;;;;;;;;;2115889;28;19981;-59
2021/10/01 02:00:16;;;;;;;;;;;;;;;;;;2121711;27;19972;-58
2021/10/01 02:01:16;;;;;;;;;;;;;;;;;;2124580;27;19932;-59
2021/10/01 02:02:17;;;;;;;;;;;;;;;;;;2124293;27;19927;-58
2021/10/01 02:03:18;;;;;;;;;;;;;;;;;;2123765;27;19930;-58
2021/10/01 02:04:19;;;;;;;;;;;;;;;;;;2132837;27;19923;-58
2021/10/01 02:05:20;;;;;;;;;;;;;;;;;;2131102;27;20402;-58
2021/10/01 02:06:21;;;;;;;;;;;;;;;;;;2121828;27;19923;-59
2021/10/01 02:07:22;;;;;;;;;;;;;;;;;;2124499;27;19973;-58
2021/10/01 02:08:22;;;;;;;;;;;;;;;;;;2123984;27;19946;-58
2021/10/01 02:09:23;;;;;;;;;;;;;;;;;;2123680;27;20288;-58
2021/10/01 02:10:24;;;;;;;;;;;;;;;;;;2115789;28;19986;-58
2021/10/01 02:11:26;;;;;;;;;;;;;;;;;;2116644;28;19943;-59
2021/10/01 02:12:27;;;;;;;;;;;;;;;;;;2122347;27;19923;-59
2021/10/01 02:13:28;;;;;;;;;;;;;;;;;;2124342;27;20396;-59
2021/10/01 02:14:29;;;;;;;;;;;;;;;;;;2123222;27;19930;-58
2021/10/01 02:15:30;;;;;;;;;;;;;;;;;;2119502;28;19984;-58
2021/10/01 02:16:31;;;;;;;;;;;;;;;;;;2115757;28;20387;-57
2021/10/01 02:17:32;;;;;;;;;;;;;;;;;;2116495;27;19924;-58
2021/10/01 02:18:32;;;;;;;;;;;;;;;;;;2122957;27;20083;-58
2021/10/01 02:19:33;;;;;;;;;;;;;;;;;;2115946;28;20300;-58
2021/10/01 02:20:34;;;;;;;;;;;;;;;;;;2116831;28;19930;-58
2021/10/01 02:21:35;;;;;;;;;;;;;;;;;;2119113;28;19998;-57
2021/10/01 02:22:36;;;;;;;;;;;;;;;;;;2115794;28;19931;-58
2021/10/01 02:23:36;;;;;;;;;;;;;;;;;;2118604;27;20406;-58
2021/10/01 02:24:37;;;;;;;;;;;;;;;;;;2122699;28;19966;-58
2021/10/01 02:26:59;;;;;;;;;;;;;;;;;;2121906;27;20010;-57
2021/10/01 02:28:00;;;;;;;;;;;;;;;;;;2124263;27;20014;-58
2021/10/01 02:29:01;;;;;;;;;;;;;;;;;;2124143;27;19933;-58
2021/10/01 02:30:02;;;;;;;;;;;;;;;;;;2121895;27;19931;-58
2021/10/01 02:31:02;;;;;;;;;;;;;;;;;;2124226;27;19927;-58
2021/10/01 02:32:03;;;;;;;;;;;;;;;;;;2124338;27;19927;-58
2021/10/01 02:33:04;;;;;;;;;;;;;;;;;;2122786;27;19923;-58
2021/10/01 02:34:05;;;;;;;;;;;;;;;;;;2132133;27;20310;-58
2021/10/01 02:35:06;;;;;;;;;;;;;;;;;;2131833;27;20315;-58
2021/10/01 02:36:06;;;;;;;;;;;;;;;;;;2122107;27;20388;-58
2021/10/01 02:37:07;;;;;;;;;;;;;;;;;;2124283;27;19952;-56
2021/10/01 02:38:08;;;;;;;;;;;;;;;;;;2123577;27;19988;-56
2021/10/01 02:39:09;;;;;;;;;;;;;;;;;;2122246;27;19927;-56
2021/10/01 02:40:10;;;;;;;;;;;;;;;;;;2124253;27;20283;-58
2021/10/01 02:41:11;;;;;;;;;;;;;;;;;;2121508;27;20333;-56
2021/10/01 02:42:11;;;;;;;;;;;;;;;;;;2127372;27;19923;-58
2021/10/01 02:43:12;;;;;;;;;;;;;;;;;;2132655;27;20482;-56
2021/10/01 02:44:13;;;;;;;;;;;;;;;;;;2128580;27;19924;-58
2021/10/01 02:45:14;;;;;;;;;;;;;;;;;;2117800;28;20334;-58
2021/10/01 02:46:15;;;;;;;;;;;;;;;;;;2115517;28;19931;-58
2021/10/01 02:47:16;;;;;;;;;;;;;;;;;;2117213;27;19927;-58
2021/10/01 02:48:16;;;;;;;;;;;;;;;;;;2122940;27;20181;-58
2021/10/01 02:49:17;;;;;;;;;;;;;;;;;;2124190;27;19934;-58
2021/10/01 02:50:18;;;;;;;;;;;;;;;;;;2122875;27;20341;-58
2021/10/01 02:51:19;;;;;;;;;;;;;;;;;;2121959;28;20402;-58
2021/10/01 02:52:20;;;;;;;;;;;;;;;;;;2124090;27;20287;-56
2021/10/01 02:53:21;;;;;;;;;;;;;;;;;;2123064;27;20018;-58
2021/10/01 02:54:22;;;;;;;;;;;;;;;;;;2122434;28;19924;-58
2021/10/01 02:55:23;;;;;;;;;;;;;;;;;;2124127;27;19927;-56
2021/10/01 02:56:24;;;;;;;;;;;;;;;;;;2122591;27;20380;-58
2021/10/01 02:57:24;;;;;;;;;;;;;;;;;;2123153;28;19927;-56
2021/10/01 02:58:25;;;;;;;;;;;;;;;;;;2124071;27;19930;-58
2021/10/01 02:59:26;;;;;;;;;;;;;;;;;;2123046;27;20296;-58
2021/10/01 03:00:27;;;;;;;;;;;;;;;;;;2123757;28;19968;-58
2021/10/01 03:01:28;;;;;;;;;;;;;;;;;;2123872;27;19987;-58
2021/10/01 03:02:29;;;;;;;;;;;;;;;;;;2121484;27;19945;-58
2021/10/01 03:03:30;;;;;;;;;;;;;;;;;;2124017;27;19923;-58
2021/10/01 03:04:31;;;;;;;;;;;;;;;;;;2124000;27;19923;-58
2021/10/01 03:05:31;;;;;;;;;;;;;;;;;;2121567;27;19934;-57
2021/10/01 03:06:32;;;;;;;;;;;;;;;;;;2115615;28;19927;-58
2021/10/01 03:07:34;;;;;;;;;;;;;;;;;;2115488;28;20269;-58
2021/10/01 03:08:35;;;;;;;;;;;;;;;;;;2120980;27;20010;-58
2021/10/01 03:09:36;;;;;;;;;;;;;;;;;;2123964;27;20368;-57
2021/10/01 03:10:37;;;;;;;;;;;;;;;;;;2123813;27;19980;-57
2021/10/01 03:11:37;;;;;;;;;;;;;;;;;;2121899;27;19935;-57
2021/10/01 03:12:38;;;;;;;;;;;;;;;;;;2124238;27;20340;-44
2021/10/01 03:13:39;;;;;;;;;;;;;;;;;;2123606;27;19924;-44
2021/10/01 03:14:40;;;;;;;;;;;;;;;;;;2125061;27;19923;-44
2021/10/01 03:15:41;;;;;;;;;;;;;;;;;;2132301;27;20367;-44
2021/10/01 03:16:43;;;;;;;;;;;;;;;;;;2130850;27;19937;-42
2021/10/01 03:17:44;;;;;;;;;;;;;;;;;;2122713;27;19988;-44
2021/10/01 03:18:45;;;;;;;;;;;;;;;;;;2115422;28;20353;-42
2021/10/01 03:19:46;;;;;;;;;;;;;;;;;;2116245;28;19930;-43
2021/10/01 03:20:47;;;;;;;;;;;;;;;;;;2119139;28;19924;-42
2021/10/01 03:21:47;;;;;;;;;;;;;;;;;;2115514;28;20320;-42
2021/10/01 03:22:49;;;;;;;;;;;;;;;;;;2116169;27;20288;-43
2021/10/01 03:23:49;;;;;;;;;;;;;;;;;;2123141;27;19927;-42
2021/10/01 03:24:50;;;;;;;;;;;;;;;;;;2123865;27;19930;-42
2021/10/01 03:25:51;;;;;;;;;;;;;;;;;;2122552;27;19924;-43
2021/10/01 03:26:52;;;;;;;;;;;;;;;;;;2123726;27;19924;-42
2021/10/01 03:27:53;;;;;;;;;;;;;;;;;;2123829;27;19930;-43
2021/10/01 03:28:54;;;;;;;;;;;;;;;;;;2122862;27;19924;-43
2021/10/01 03:29:54;;;;;;;;;;;;;;;;;;2122211;28;19923;-42
2021/10/01 03:30:55;;;;;;;;;;;;;;;;;;2123656;27;20010;-44
2021/10/01 03:31:56;;;;;;;;;;;;;;;;;;2122887;27;19923;-43
2021/10/01 03:32:57;;;;;;;;;;;;;;;;;;2122347;28;20014;-42
2021/10/01 03:33:58;;;;;;;;;;;;;;;;;;2123837;27;20426;-43
2021/10/01 03:35:01;;;;;;;;;;;;;;;;;;2122339;27;19924;-43
2021/10/01 03:36:02;;;;;;;;;;;;;;;;;;2123257;28;19929;-43
2021/10/01 03:37:03;;;;;;;;;;;;;;;;;;2123775;27;19934;-44
2021/10/01 03:38:04;;;;;;;;;;;;;;;;;;2121669;27;19975;-44
2021/10/01 03:39:04;;;;;;;;;;;;;;;;;;2123604;27;20329;-42
2021/10/01 03:40:05;;;;;;;;;;;;;;;;;;2123865;27;19929;-43
2021/10/01 03:41:06;;;;;;;;;;;;;;;;;;2121327;27;19923;-45
2021/10/01 03:42:07;;;;;;;;;;;;;;;;;;2115230;28;19931;-45
2021/10/01 03:43:08;;;;;;;;;;;;;;;;;;2115134;28;19928;-42
2021/10/01 03:44:08;;;;;;;;;;;;;;;;;;2120083;27;20452;-42
2021/10/01 03:45:09;;;;;;;;;;;;;;;;;;2122994;27;19924;-44
2021/10/01 03:46:10;;;;;;;;;;;;;;;;;;2123397;27;19923;-44
2021/10/01 03:47:11;;;;;;;;;;;;;;;;;;2123416;27;19968;-44
2021/10/01 03:48:12;;;;;;;;;;;;;;;;;;2132264;27;19923;-45
2021/10/01 03:49:12;;;;;;;;;;;;;;;;;;2131826;27;19930;-43
2021/10/01 03:50:13;;;;;;;;;;;;;;;;;;2121501;27;19949;-44
2021/10/01 03:51:15;;;;;;;;;;;;;;;;;;2114957;27;19969;-44
2021/10/01 03:52:15;;;;;;;;;;;;;;;;;;2115637;28;19963;-44
2021/10/01 03:53:17;;;;;;;;;;;;;;;;;;2121519;27;20002;-44
2021/10/01 03:54:17;;;;;;;;;;;;;;;;;;2123600;27;20368;-42
2021/10/01 03:55:21;;;;;;;;;;;;;;;;;;2123086;27;19927;-44
2021/10/01 03:56:21;;;;;;;;;;;;;;;;;;2117014;28;20011;-44
2021/10/01 03:57:22;;;;;;;;;;;;;;;;;;2115250;28;19931;-57
2021/10/01 03:58:23;;;;;;;;;;;;;;;;;;2119982;27;19924;-56
2021/10/01 03:59:24;;;;;;;;;;;;;;;;;;2123266;28;19973;-57
2021/10/01 04:00:25;;;;;;;;;;;;;;;;;;2123504;27;20406;-56
2021/10/01 04:01:26;;;;;;;;;;;;;;;;;;2123212;27;19982;-57
2021/10/01 04:02:26;;;;;;;;;;;;;;;;;;2116930;27;19923;-56
2021/10/01 04:03:28;;;;;;;;;;;;;;;;;;2115033;28;20419;-57
2021/10/01 04:04:29;;;;;;;;;;;;;;;;;;2118942;27;19930;-57
2021/10/01 04:05:31;;;;;;;;;;;;;;;;;;2123441;27;20037;-56
2021/10/01 04:06:31;;;;;;;;;;;;;;;;;;2123660;27;20363;-57
2021/10/01 04:07:32;;;;;;;;;;;;;;;;;;2121461;27;19923;-56
2021/10/01 04:08:33;;;;;;;;;;;;;;;;;;2123381;27;20424;-57
2021/10/01 04:09:34;;;;;;;;;;;;;;;;;;2123710;27;19928;-57
2021/10/01 04:10:35;;;;;;;;;;;;;;;;;;2122695;27;19929;-56
2021/10/01 04:11:38;;;;;;;;;;;;;;;;;;2132188;27;19946;-56
2021/10/01 04:12:38;;;;;;;;;;;;;;;;;;2132177;27;20022;-58
2021/10/01 04:13:40;;;;;;;;;;;;;;;;;;2121147;27;19924;-57
2021/10/01 04:14:41;;;;;;;;;;;;;;;;;;2123451;27;19946;-57
2021/10/01 04:15:42;;;;;;;;;;;;;;;;;;2123166;27;19931;-57
2021/10/01 04:16:43;;;;;;;;;;;;;;;;;;2121503;27;19923;-57
2021/10/01 04:17:43;;;;;;;;;;;;;;;;;;2123445;27;19924;-57
2021/10/01 04:18:44;;;;;;;;;;;;;;;;;;2123052;27;19927;-57
2021/10/01 04:19:45;;;;;;;;;;;;;;;;;;2121487;27;19976;-57
2021/10/01 04:20:46;;;;;;;;;;;;;;;;;;2123378;27;20402;-57
2021/10/01 04:21:47;;;;;;;;;;;;;;;;;;2122569;27;19930;-57
2021/10/01 04:22:47;;;;;;;;;;;;;;;;;;2122249;27;20428;-58
2021/10/01 04:23:48;;;;;;;;;;;;;;;;;;2123489;27;20364;-57
2021/10/01 04:24:49;;;;;;;;;;;;;;;;;;2121907;27;19923;-57
2021/10/01 04:25:50;;;;;;;;;;;;;;;;;;2122729;27;20280;-56
2021/10/01 04:26:51;;;;;;;;;;;;;;;;;;2123535;27;19972;-56
2021/10/01 04:27:52;;;;;;;;;;;;;;;;;;2121620;27;20010;-56
2021/10/01 04:28:52;;;;;;;;;;;;;;;;;;2128693;27;19923;-57
2021/10/01 04:29:53;;;;;;;;;;;;;;;;;;2132100;27;20295;-56
2021/10/01 04:30:54;;;;;;;;;;;;;;;;;;2127114;27;19927;-57
2021/10/01 04:31:55;;;;;;;;;;;;;;;;;;2125596;27;19975;-57
2021/10/01 04:33:01;;;;;;;;;;;;;;;;;;2123335;28;19931;-57
2021/10/01 04:34:04;;;;;;;;;;;;;;;;;;2123687;27;20452;-57
2021/10/01 04:35:07;;;;;;;;;;;;;;;;;;2116733;27;19924;-57
2021/10/01 04:36:08;;;;;;;;;;;;;;;;;;2114950;28;20026;-56
2021/10/01 04:37:09;;;;;;;;;;;;;;;;;;2119409;27;19930;-57
2021/10/01 04:38:09;;;;;;;;;;;;;;;;;;2131680;27;19927;-57
2021/10/01 04:39:11;;;;;;;;;;;;;;;;;;2131865;27;19931;-57
2021/10/01 04:40:12;;;;;;;;;;;;;;;;;;2123334;27;20002;-56
2021/10/01 04:41:13;;;;;;;;;;;;;;;;;;2114744;28;19924;-56
2021/10/01 04:42:13;;;;;;;;;;;;;;;;;;2114819;28;19931;-56
2021/10/01 04:43:14;;;;;;;;;;;;;;;;;;2120131;27;20421;-53
2021/10/01 04:44:15;;;;;;;;;;;;;;;;;;2123357;27;19923;-56
2021/10/01 04:45:16;;;;;;;;;;;;;;;;;;2123367;27;19924;-55
2021/10/01 04:46:17;;;;;;;;;;;;;;;;;;2120756;27;19948;-55
2021/10/01 04:47:18;;;;;;;;;;;;;;;;;;2123319;27;19927;-56
2021/10/01 04:48:18;;;;;;;;;;;;;;;;;;2122825;27;19927;-56
2021/10/01 04:49:19;;;;;;;;;;;;;;;;;;2121263;27;19930;-55
2021/10/01 04:50:20;;;;;;;;;;;;;;;;;;2123260;27;19923;-56
2021/10/01 04:51:21;;;;;;;;;;;;;;;;;;2113194;27;19924;-57
2021/10/01 04:52:22;;;;;;;;;;;;;;;;;;2118578;28;19931;-56
2021/10/01 04:53:23;;;;;;;;;;;;;;;;;;2114802;28;20033;-56
2021/10/01 04:54:24;;;;;;;;;;;;;;;;;;2117726;28;19980;-56
2021/10/01 04:55:24;;;;;;;;;;;;;;;;;;2121623;27;19923;-56
2021/10/01 04:56:25;;;;;;;;;;;;;;;;;;2122978;27;19923;-56
2021/10/01 04:57:26;;;;;;;;;;;;;;;;;;2121812;27;19928;-56
2021/10/01 04:58:27;;;;;;;;;;;;;;;;;;2123629;27;20399;-56
2021/10/01 04:59:29;;;;;;;;;;;;;;;;;;2123073;28;19927;-56
2021/10/01 05:00:30;;;;;;;;;;;;;;;;;;2121440;27;20456;-56
2021/10/01 05:01:30;;;;;;;;;;;;;;;;;;2122526;28;19949;-57
2021/10/01 05:02:32;;;;;;;;;;;;;;;;;;2123090;27;19937;-57
2021/10/01 05:03:32;;;;;;;;;;;;;;;;;;2119704;27;19931;-57
2021/10/01 05:04:35;;;;;;;;;;;;;;;;;;2131474;27;20437;-57
2021/10/01 05:05:36;;;;;;;;;;;;;;;;;;2131574;27;19934;-57
2021/10/01 05:06:36;;;;;;;;;;;;;;;;;;2122414;27;19932;-58
2021/10/01 05:07:37;;;;;;;;;;;;;;;;;;2123085;27;19924;-58
2021/10/01 05:08:38;;;;;;;;;;;;;;;;;;2123120;27;20291;-58
2021/10/01 05:09:39;;;;;;;;;;;;;;;;;;2119305;27;20287;-58
2021/10/01 05:10:40;;;;;;;;;;;;;;;;;;2114489;28;19931;-58
2021/10/01 05:11:40;;;;;;;;;;;;;;;;;;2115540;28;19977;-58
2021/10/01 05:12:42;;;;;;;;;;;;;;;;;;2121789;27;20383;-58
2021/10/01 05:13:43;;;;;;;;;;;;;;;;;;2123105;27;20022;-57
2021/10/01 05:14:43;;;;;;;;;;;;;;;;;;2121471;27;19950;-58
2021/10/01 05:15:45;;;;;;;;;;;;;;;;;;2117411;28;19928;-58
2021/10/01 05:16:45;;;;;;;;;;;;;;;;;;2114618;28;19966;-58
2021/10/01 05:17:49;;;;;;;;;;;;;;;;;;2116873;27;19923;-58
2021/10/01 05:18:50;;;;;;;;;;;;;;;;;;2121016;28;20374;-59
2021/10/01 05:19:51;;;;;;;;;;;;;;;;;;2123092;27;19923;-59
2021/10/01 05:20:52;;;;;;;;;;;;;;;;;;2121972;27;20336;-58
2021/10/01 05:21:52;;;;;;;;;;;;;;;;;;2121536;28;19930;-59
2021/10/01 05:22:53;;;;;;;;;;;;;;;;;;2123034;27;19924;-59
2021/10/01 05:23:54;;;;;;;;;;;;;;;;;;2123182;27;19976;-59
2021/10/01 05:24:55;;;;;;;;;;;;;;;;;;2115403;28;19999;-58
2021/10/01 05:25:56;;;;;;;;;;;;;;;;;;2114402;28;19954;-58
2021/10/01 05:26:57;;;;;;;;;;;;;;;;;;2117188;28;19931;-59
2021/10/01 05:27:58;;;;;;;;;;;;;;;;;;2130753;27;20288;-59
2021/10/01 05:29:00;;;;;;;;;;;;;;;;;;2131428;27;19974;-58
2021/10/01 05:30:01;;;;;;;;;;;;;;;;;;2123177;27;20376;-59
2021/10/01 05:31:02;;;;;;;;;;;;;;;;;;2131191;27;19923;-59
2021/10/01 05:32:03;;;;;;;;;;;;;;;;;;2131693;27;19956;-59
2021/10/01 05:33:06;;;;;;;;;;;;;;;;;;2122246;27;19931;-59
2021/10/01 05:34:07;;;;;;;;;;;;;;;;;;2114502;28;19928;-59
2021/10/01 05:35:08;;;;;;;;;;;;;;;;;;2114646;28;19928;-59
2021/10/01 05:36:09;;;;;;;;;;;;;;;;;;2120052;27;19930;-59
2021/10/01 05:37:10;;;;;;;;;;;;;;;;;;2123122;27;19955;-59
2021/10/01 05:38:11;;;;;;;;;;;;;;;;;;2122584;27;19924;-59
2021/10/01 05:39:11;;;;;;;;;;;;;;;;;;2122692;27;19975;-59
2021/10/01 05:40:12;;;;;;;;;;;;;;;;;;2114453;28;19924;-59
2021/10/01 05:41:13;;;;;;;;;;;;;;;;;;2114861;28;19931;-59
2021/10/01 05:42:14;;;;;;;;;;;;;;;;;;2120998;27;20424;-59
2021/10/01 05:43:16;;;;;;;;;;;;;;;;;;2123016;27;19950;-59
2021/10/01 05:44:16;;;;;;;;;;;;;;;;;;2122498;27;20015;-59
2021/10/01 05:45:17;;;;;;;;;;;;;;;;;;2121149;27;19923;-59
2021/10/01 05:46:19;;;;;;;;;;;;;;;;;;2123026;27;20355;-59
2021/10/01 05:47:20;;;;;;;;;;;;;;;;;;2121589;27;20443;-59
2021/10/01 05:48:21;;;;;;;;;;;;;;;;;;2121988;27;19924;-60
2021/10/01 05:49:24;;;;;;;;;;;;;;;;;;2122919;27;19960;-59
2021/10/01 05:50:28;;;;;;;;;;;;;;;;;;2119515;27;20015;-60
2021/10/01 05:51:30;;;;;;;;;;;;;;;;;;2121602;28;20014;-60
2021/10/01 05:52:49;;;;;;;;;;;;;;;;;;2122997;27;20010;-58
2021/10/01 05:54:11;;;;;;;;;;;;;;;;;;2119210;27;20429;-60
2021/10/01 05:55:12;;;;;;;;;;;;;;;;;;2114611;28;19967;-60
2021/10/01 05:56:13;;;;;;;;;;;;;;;;;;2115256;28;19923;-60
2021/10/01 05:57:14;;;;;;;;;;;;;;;;;;2122034;27;20010;-59
2021/10/01 05:58:17;;;;;;;;;;;;;;;;;;2123009;27;19930;-59
2021/10/01 05:59:18;;;;;;;;;;;;;;;;;;2121579;27;20388;-59
2021/10/01 06:00:19;;;;;;;;;;;;;;;;;;2120465;27;19928;-61
2021/10/01 06:01:19;;;;;;;;;;;;;;;;;;2114566;28;20312;-59
2021/10/01 06:02:20;;;;;;;;;;;;;;;;;;2117245;27;20303;-59
2021/10/01 06:03:21;;;;;;;;;;;;;;;;;;2127912;27;19923;-61
2021/10/01 06:04:22;;;;;;;;;;;;;;;;;;2131451;27;20419;-61
2021/10/01 06:05:23;;;;;;;;;;;;;;;;;;2124994;27;19984;-61
2021/10/01 06:06:24;;;;;;;;;;;;;;;;;;2116763;27;20369;-61
2021/10/01 06:07:25;;;;;;;;;;;;;;;;;;2114489;28;19983;-59
2021/10/01 06:08:25;;;;;;;;;;;;;;;;;;2119603;27;19928;-60
2021/10/01 06:09:26;;;;;;;;;;;;;;;;;;2118434;27;19928;-60
2021/10/01 06:10:27;;;;;;;;;;;;;;;;;;2115660;28;19931;-60
2021/10/01 06:11:28;;;;;;;;;;;;;;;;;;2119299;28;19927;-59
2021/10/01 06:12:29;;;;;;;;;;;;;;;;;;2116885;27;19924;-60
2021/10/01 06:13:29;;;;;;;;;;;;;;;;;;2115804;28;20376;-60
2021/10/01 06:14:30;;;;;;;;;;;;;;;;;;2119414;27;19976;-60
2021/10/01 06:15:31;;;;;;;;;;;;;;;;;;2124064;27;19998;-59
2021/10/01 06:16:32;;;;;;;;;;;;;;;;;;2124368;27;19931;-57
2021/10/01 06:17:33;;;;;;;;;;;;;;;;;;2122234;27;19931;-59
2021/10/01 06:18:34;;;;;;;;;;;;;;;;;;2124111;27;19930;-61
2021/10/01 06:19:36;;;;;;;;;;;;;;;;;;2124452;27;19961;-60
2021/10/01 06:20:37;;;;;;;;;;;;;;;;;;2123040;27;20022;-59
2021/10/01 06:21:38;;;;;;;;;;;;;;;;;;2124319;27;19927;-60
2021/10/01 06:22:39;;;;;;;;;;;;;;;;;;2124416;27;19928;-60
2021/10/01 06:23:40;;;;;;;;;;;;;;;;;;2124279;27;19943;-60
2021/10/01 06:24:41;;;;;;;;;;;;;;;;;;2132731;27;20391;-60
2021/10/01 06:25:44;;;;;;;;;;;;;;;;;;2131704;27;19923;-59
2021/10/01 06:26:47;;;;;;;;;;;;;;;;;;2122221;27;20295;-61
2021/10/01 06:27:48;;;;;;;;;;;;;;;;;;2124305;27;20049;-60
2021/10/01 06:28:49;;;;;;;;;;;;;;;;;;2123406;27;20515;-60
2021/10/01 06:29:52;;;;;;;;;;;;;;;;;;2122963;27;20415;-61
2021/10/01 06:30:55;;;;;;;;;;;;;;;;;;2115690;28;20024;-61
2021/10/01 06:31:56;;;;;;;;;;;;;;;;;;2117363;27;20131;-61
2021/10/01 06:32:57;;;;;;;;;;;;;;;;;;2123040;27;19931;-61
2021/10/01 06:33:58;;;;;;;;;;;;;;;;;;2123863;27;19970;-61
2021/10/01 06:34:59;;;;;;;;;;;;;;;;;;2122924;27;19924;-61
2021/10/01 06:36:00;;;;;;;;;;;;;;;;;;2120099;27;19931;-61
2021/10/01 06:37:01;;;;;;;;;;;;;;;;;;2115324;28;20350;-61
2021/10/01 06:38:02;;;;;;;;;;;;;;;;;;2119519;27;20285;-61
2021/10/01 06:39:02;;;;;;;;;;;;;;;;;;2117285;27;19931;-61
2021/10/01 06:40:03;;;;;;;;;;;;;;;;;;2120207;28;19927;-62
2021/10/01 06:41:04;;;;;;;;;;;;;;;;;;2122634;27;20392;-61
2021/10/01 06:42:05;;;;;;;;;;;;;;;;;;2123233;28;19976;-62
2021/10/01 06:43:07;;;;;;;;;;;;;;;;;;2124388;27;19923;-61
2021/10/01 06:44:10;;;;;;;;;;;;;;;;;;2121968;27;20084;-61
2021/10/01 06:45:11;;;;;;;;;;;;;;;;;;2123042;28;20017;-62
2021/10/01 06:46:20;;;;;;;;;;;;;;;;;;2123997;27;19924;-61
2021/10/01 06:47:26;;;;;;;;;;;;;;;;;;2123828;27;20280;-62
2021/10/01 06:48:36;;;;;;;;;;;;;;;;;;2115611;28;20407;-61
2021/10/01 06:49:45;;;;;;;;;;;;;;;;;;2116663;28;19963;-61
2021/10/01 07:23:17;;;;;;;;;;;;;;;;;;2119660;28;19975;-61
2021/10/01 07:35:24;;;;;;;;;;;;;;;;;;2120340;27;20022;-61
2021/10/01 08:19:20;;;;;;;;;;;;;;;;;;2121117;27;19931;-61
2021/10/01 08:20:21;;;;;;;;;;;;;;;;;;2123420;27;19966;-61
2021/10/01 08:21:26;;;;;;;;;;;;;;;;;;2122108;27;20415;-60
2021/10/01 08:22:45;;;;;;;;;;;;;;;;;;2123168;28;20300;-61
2021/10/01 08:23:45;;;;;;;;;;;;;;;;;;2123674;27;19931;-61
2021/10/01 08:24:46;;;;;;;;;;;;;;;;;;2122422;27;19946;-61
2021/10/01 08:25:47;;;;;;;;;;;;;;;;;;2123431;28;19924;-61